sensor_id;sensor_type;location;lat;lon;timestamp;pressure;altitude;pressure_sealevel;temperature;humidity
49102;BME280;34913;47.520;19.186;2023-07-20T00:01:28;99176.44;;;23.43;66.25
49102;BME280;34913;47.520;19.186;2023-07-20T00:03:54;99181.59;;;23.33;67.16
49102;BME280;34913;47.520;19.186;2023-07-20T00:06:23;99185.66;;;23.24;67.36
49102;BME280;34913;47.520;19.186;2023-07-20T00:08:50;99168.91;;;23.15;67.48
49102;BME280;34913;47.520;19.186;2023-07-20T00:11:15;99176.22;;;23.15;67.63
49102;BME280;34913;47.520;19.186;2023-07-20T00:13:41;99184.34;;;23.15;68.02
49102;BME280;34913;47.520;19.186;2023-07-20T00:16:06;99185.34;;;23.13;67.75
49102;BME280;34913;47.520;19.186;2023-07-20T00:18:32;99184.19;;;23.09;67.61
49102;BME280;34913;47.520;19.186;2023-07-20T00:20:57;99172.13;;;23.05;67.77
49102;BME280;34913;47.520;19.186;2023-07-20T00:23:25;99167.94;;;23.09;67.63
49102;BME280;34913;47.520;19.186;2023-07-20T00:25:51;99170.25;;;23.06;68.19
49102;BME280;34913;47.520;19.186;2023-07-20T00:28:16;99167.88;;;22.98;68.70
49102;BME280;34913;47.520;19.186;2023-07-20T00:30:42;99165.03;;;22.93;69.08
49102;BME280;34913;47.520;19.186;2023-07-20T00:33:10;99161.09;;;22.89;69.34
49102;BME280;34913;47.520;19.186;2023-07-20T00:35:36;99162.44;;;22.79;69.73
49102;BME280;34913;47.520;19.186;2023-07-20T00:38:03;99169.56;;;22.74;69.83
49102;BME280;34913;47.520;19.186;2023-07-20T00:40:28;99164.28;;;22.67;69.88
49102;BME280;34913;47.520;19.186;2023-07-20T00:42:54;99172.00;;;22.64;70.35
49102;BME280;34913;47.520;19.186;2023-07-20T00:45:19;99175.50;;;22.64;70.36
49102;BME280;34913;47.520;19.186;2023-07-20T00:47:45;99178.91;;;22.60;70.52
49102;BME280;34913;47.520;19.186;2023-07-20T00:50:10;99176.69;;;22.50;70.93
49102;BME280;34913;47.520;19.186;2023-07-20T00:52:37;99168.59;;;22.50;71.03
49102;BME280;34913;47.520;19.186;2023-07-20T00:55:05;99168.81;;;22.48;71.02
49102;BME280;34913;47.520;19.186;2023-07-20T00:57:31;99161.53;;;22.49;71.10
49102;BME280;34913;47.520;19.186;2023-07-20T00:59:57;99153.94;;;22.39;70.93
49102;BME280;34913;47.520;19.186;2023-07-20T01:02:22;99158.91;;;22.42;71.39
49102;BME280;34913;47.520;19.186;2023-07-20T01:04:48;99145.84;;;22.39;71.44
49102;BME280;34913;47.520;19.186;2023-07-20T01:12:47;99144.72;;;22.28;73.83
49102;BME280;34913;47.520;19.186;2023-07-20T01:15:13;99140.41;;;22.21;73.79
49102;BME280;34913;47.520;19.186;2023-07-20T01:17:39;99140.25;;;22.16;74.07
49102;BME280;34913;47.520;19.186;2023-07-20T01:20:06;99135.66;;;22.16;73.70
49102;BME280;34913;47.520;19.186;2023-07-20T01:25:15;99140.00;;;22.17;72.36
49102;BME280;34913;47.520;19.186;2023-07-20T01:33:32;99153.59;;;22.36;71.42
49102;BME280;34913;47.520;19.186;2023-07-20T01:35:59;99136.06;;;22.38;71.85
49102;BME280;34913;47.520;19.186;2023-07-20T01:38:26;99132.91;;;22.41;71.78
49102;BME280;34913;47.520;19.186;2023-07-20T01:40:52;99134.19;;;22.39;71.74
49102;BME280;34913;47.520;19.186;2023-07-20T01:43:18;99146.88;;;22.38;72.72
49102;BME280;34913;47.520;19.186;2023-07-20T01:45:43;99146.06;;;22.38;73.74
49102;BME280;34913;47.520;19.186;2023-07-20T01:48:09;99149.66;;;22.32;74.08
49102;BME280;34913;47.520;19.186;2023-07-20T01:50:35;99155.13;;;22.25;74.16
49102;BME280;34913;47.520;19.186;2023-07-20T01:53:01;99164.88;;;22.26;73.84
49102;BME280;34913;47.520;19.186;2023-07-20T01:55:26;99163.47;;;22.23;73.59
49102;BME280;34913;47.520;19.186;2023-07-20T01:57:52;99155.13;;;22.25;73.66
49102;BME280;34913;47.520;19.186;2023-07-20T02:00:18;99160.75;;;22.23;74.08
49102;BME280;34913;47.520;19.186;2023-07-20T02:02:46;99164.50;;;22.22;73.41
49102;BME280;34913;47.520;19.186;2023-07-20T02:05:12;99163.41;;;22.30;73.28
49102;BME280;34913;47.520;19.186;2023-07-20T02:07:37;99160.94;;;22.28;73.39
49102;BME280;34913;47.520;19.186;2023-07-20T02:10:03;99170.06;;;22.27;72.81
49102;BME280;34913;47.520;19.186;2023-07-20T02:12:28;99169.69;;;22.24;73.92
49102;BME280;34913;47.520;19.186;2023-07-20T02:14:53;99173.44;;;22.23;73.83
49102;BME280;34913;47.520;19.186;2023-07-20T02:17:19;99177.19;;;22.22;73.87
49102;BME280;34913;47.520;19.186;2023-07-20T02:19:44;99178.78;;;22.29;73.37
49102;BME280;34913;47.520;19.186;2023-07-20T02:22:10;99175.88;;;22.31;72.79
49102;BME280;34913;47.520;19.186;2023-07-20T02:24:36;99186.69;;;22.31;73.14
49102;BME280;34913;47.520;19.186;2023-07-20T02:27:01;99176.75;;;22.25;73.28
49102;BME280;34913;47.520;19.186;2023-07-20T02:29:27;99175.91;;;22.24;75.04
49102;BME280;34913;47.520;19.186;2023-07-20T02:31:52;99181.59;;;22.16;76.38
49102;BME280;34913;47.520;19.186;2023-07-20T02:34:18;99174.81;;;22.07;77.02
49102;BME280;34913;47.520;19.186;2023-07-20T02:36:43;99173.97;;;22.07;78.17
49102;BME280;34913;47.520;19.186;2023-07-20T02:39:09;99167.81;;;21.99;78.65
49102;BME280;34913;47.520;19.186;2023-07-20T02:41:35;99174.47;;;21.97;78.90
49102;BME280;34913;47.520;19.186;2023-07-20T02:44:00;99180.53;;;21.92;79.70
49102;BME280;34913;47.520;19.186;2023-07-20T02:46:27;99181.59;;;21.91;79.77
49102;BME280;34913;47.520;19.186;2023-07-20T02:48:55;99184.28;;;21.91;80.11
49102;BME280;34913;47.520;19.186;2023-07-20T02:51:20;99174.75;;;21.89;80.31
49102;BME280;34913;47.520;19.186;2023-07-20T02:53:45;99188.09;;;21.84;81.15
49102;BME280;34913;47.520;19.186;2023-07-20T02:56:11;99189.41;;;21.74;80.18
49102;BME280;34913;47.520;19.186;2023-07-20T02:58:41;99187.53;;;21.75;80.39
49102;BME280;34913;47.520;19.186;2023-07-20T03:01:09;99193.97;;;21.74;79.90
49102;BME280;34913;47.520;19.186;2023-07-20T03:03:35;99195.28;;;21.65;79.83
49102;BME280;34913;47.520;19.186;2023-07-20T03:06:07;99199.41;;;21.67;79.68
49102;BME280;34913;47.520;19.186;2023-07-20T03:08:34;99194.19;;;21.72;79.83
49102;BME280;34913;47.520;19.186;2023-07-20T03:11:01;99195.75;;;21.55;80.05
49102;BME280;34913;47.520;19.186;2023-07-20T03:13:26;99205.13;;;21.53;80.12
49102;BME280;34913;47.520;19.186;2023-07-20T03:15:52;99210.31;;;21.48;80.96
49102;BME280;34913;47.520;19.186;2023-07-20T03:18:18;99206.84;;;21.40;81.49
49102;BME280;34913;47.520;19.186;2023-07-20T03:20:43;99209.97;;;21.37;81.08
49102;BME280;34913;47.520;19.186;2023-07-20T03:23:12;99208.78;;;21.33;81.19
49102;BME280;34913;47.520;19.186;2023-07-20T03:25:37;99224.75;;;21.35;81.30
49102;BME280;34913;47.520;19.186;2023-07-20T03:28:03;99215.59;;;21.36;81.26
49102;BME280;34913;47.520;19.186;2023-07-20T03:30:29;99228.88;;;21.37;81.64
49102;BME280;34913;47.520;19.186;2023-07-20T03:32:54;99224.31;;;21.38;81.59
49102;BME280;34913;47.520;19.186;2023-07-20T03:35:20;99224.31;;;21.38;81.81
49102;BME280;34913;47.520;19.186;2023-07-20T03:37:45;99239.66;;;21.37;80.83
49102;BME280;34913;47.520;19.186;2023-07-20T03:40:11;99229.47;;;21.39;79.95
49102;BME280;34913;47.520;19.186;2023-07-20T03:42:36;99232.38;;;21.44;80.94
49102;BME280;34913;47.520;19.186;2023-07-20T03:45:02;99236.28;;;21.49;80.59
49102;BME280;34913;47.520;19.186;2023-07-20T03:47:28;99243.38;;;21.50;80.38
49102;BME280;34913;47.520;19.186;2023-07-20T03:49:53;99237.56;;;21.46;81.36
49102;BME280;34913;47.520;19.186;2023-07-20T03:52:19;99244.44;;;21.42;81.01
49102;BME280;34913;47.520;19.186;2023-07-20T03:54:44;99239.22;;;21.40;80.20
49102;BME280;34913;47.520;19.186;2023-07-20T03:57:10;99254.56;;;21.46;80.14
49102;BME280;34913;47.520;19.186;2023-07-20T03:59:37;99248.31;;;21.53;79.65
49102;BME280;34913;47.520;19.186;2023-07-20T04:02:03;99255.97;;;21.56;78.83
49102;BME280;34913;47.520;19.186;2023-07-20T04:04:30;99256.41;;;21.53;77.93
49102;BME280;34913;47.520;19.186;2023-07-20T04:06:55;99259.25;;;21.64;75.25
49102;BME280;34913;47.520;19.186;2023-07-20T04:09:21;99254.22;;;21.74;75.36
49102;BME280;34913;47.520;19.186;2023-07-20T04:11:46;99253.75;;;21.84;72.73
49102;BME280;34913;47.520;19.186;2023-07-20T04:14:11;99254.09;;;21.94;72.03
49102;BME280;34913;47.520;19.186;2023-07-20T04:16:37;99258.63;;;22.00;71.68
49102;BME280;34913;47.520;19.186;2023-07-20T04:19:02;99251.53;;;22.06;71.23
49102;BME280;34913;47.520;19.186;2023-07-20T04:21:28;99252.75;;;22.10;72.00
49102;BME280;34913;47.520;19.186;2023-07-20T04:23:53;99245.06;;;22.14;72.49
49102;BME280;34913;47.520;19.186;2023-07-20T04:26:19;99243.78;;;22.16;70.07
49102;BME280;34913;47.520;19.186;2023-07-20T04:28:44;99244.44;;;22.37;67.13
49102;BME280;34913;47.520;19.186;2023-07-20T04:31:13;99239.41;;;22.40;65.72
49102;BME280;34913;47.520;19.186;2023-07-20T04:33:39;99237.25;;;22.49;65.45
49102;BME280;34913;47.520;19.186;2023-07-20T04:36:05;99239.06;;;22.55;64.49
49102;BME280;34913;47.520;19.186;2023-07-20T04:38:30;99247.25;;;22.67;64.35
49102;BME280;34913;47.520;19.186;2023-07-20T04:40:56;99247.13;;;22.80;64.17
49102;BME280;34913;47.520;19.186;2023-07-20T04:43:21;99241.75;;;22.98;62.67
49102;BME280;34913;47.520;19.186;2023-07-20T04:45:47;99250.56;;;23.12;60.81
49102;BME280;34913;47.520;19.186;2023-07-20T04:48:14;99254.53;;;23.28;62.26
49102;BME280;34913;47.520;19.186;2023-07-20T04:50:41;99247.44;;;23.45;60.29
49102;BME280;34913;47.520;19.186;2023-07-20T04:53:08;99250.91;;;23.82;59.37
49102;BME280;34913;47.520;19.186;2023-07-20T04:55:35;99247.69;;;24.15;57.61
49102;BME280;34913;47.520;19.186;2023-07-20T04:58:02;99246.00;;;24.56;56.43
49102;BME280;34913;47.520;19.186;2023-07-20T05:00:28;99244.94;;;24.69;56.10
49102;BME280;34913;47.520;19.186;2023-07-20T05:02:54;99243.63;;;24.83;56.50
49102;BME280;34913;47.520;19.186;2023-07-20T05:05:20;99249.28;;;25.17;53.91
49102;BME280;34913;47.520;19.186;2023-07-20T05:07:45;99244.72;;;25.34;53.22
49102;BME280;34913;47.520;19.186;2023-07-20T05:10:11;99248.94;;;25.53;52.51
49102;BME280;34913;47.520;19.186;2023-07-20T05:12:36;99246.16;;;25.77;52.94
49102;BME280;34913;47.520;19.186;2023-07-20T05:15:02;99257.88;;;25.94;52.14
49102;BME280;34913;47.520;19.186;2023-07-20T05:17:29;99247.66;;;25.84;53.02
49102;BME280;34913;47.520;19.186;2023-07-20T05:19:54;99248.78;;;25.88;50.44
49102;BME280;34913;47.520;19.186;2023-07-20T05:22:20;99251.66;;;25.82;50.79
49102;BME280;34913;47.520;19.186;2023-07-20T05:24:45;99251.75;;;25.87;50.02
49102;BME280;34913;47.520;19.186;2023-07-20T05:27:10;99256.38;;;25.86;49.06
49102;BME280;34913;47.520;19.186;2023-07-20T05:29:36;99248.50;;;26.02;50.22
49102;BME280;34913;47.520;19.186;2023-07-20T05:32:01;99244.19;;;26.23;49.94
49102;BME280;34913;47.520;19.186;2023-07-20T05:34:28;99252.81;;;26.31;49.62
49102;BME280;34913;47.520;19.186;2023-07-20T05:36:53;99242.56;;;26.38;49.04
49102;BME280;34913;47.520;19.186;2023-07-20T05:39:19;99251.50;;;26.51;50.38
49102;BME280;34913;47.520;19.186;2023-07-20T05:41:44;99254.19;;;26.67;49.75
49102;BME280;34913;47.520;19.186;2023-07-20T05:44:10;99254.66;;;26.81;48.13
49102;BME280;34913;47.520;19.186;2023-07-20T05:46:35;99261.31;;;27.07;47.35
49102;BME280;34913;47.520;19.186;2023-07-20T05:49:01;99264.25;;;27.44;45.90
49102;BME280;34913;47.520;19.186;2023-07-20T05:51:27;99274.78;;;27.63;45.60
49102;BME280;34913;47.520;19.186;2023-07-20T05:53:52;99275.78;;;27.73;47.06
49102;BME280;34913;47.520;19.186;2023-07-20T05:56:18;99274.88;;;27.95;44.75
49102;BME280;34913;47.520;19.186;2023-07-20T05:58:43;99271.91;;;27.96;43.27
49102;BME280;34913;47.520;19.186;2023-07-20T06:01:08;99273.50;;;27.92;43.80
49102;BME280;34913;47.520;19.186;2023-07-20T06:03:34;99271.22;;;28.11;43.94
49102;BME280;34913;47.520;19.186;2023-07-20T06:06:00;99278.44;;;27.95;44.17
49102;BME280;34913;47.520;19.186;2023-07-20T06:08:28;99277.63;;;28.22;43.64
49102;BME280;34913;47.520;19.186;2023-07-20T06:10:54;99268.78;;;28.36;42.50
49102;BME280;34913;47.520;19.186;2023-07-20T06:13:20;99268.09;;;28.56;42.21
49102;BME280;34913;47.520;19.186;2023-07-20T06:15:45;99271.47;;;28.74;42.24
49102;BME280;34913;47.520;19.186;2023-07-20T06:18:12;99275.06;;;28.79;41.59
49102;BME280;34913;47.520;19.186;2023-07-20T06:20:37;99272.50;;;29.00;42.18
49102;BME280;34913;47.520;19.186;2023-07-20T06:23:02;99280.44;;;29.06;40.99
49102;BME280;34913;47.520;19.186;2023-07-20T06:25:28;99279.84;;;28.94;40.65
49102;BME280;34913;47.520;19.186;2023-07-20T06:27:55;99288.03;;;28.94;42.48
49102;BME280;34913;47.520;19.186;2023-07-20T06:30:20;99277.84;;;28.84;42.16
49102;BME280;34913;47.520;19.186;2023-07-20T06:32:46;99285.34;;;28.67;41.75
49102;BME280;34913;47.520;19.186;2023-07-20T06:35:11;99281.34;;;28.80;41.68
49102;BME280;34913;47.520;19.186;2023-07-20T06:37:37;99282.69;;;29.19;40.99
49102;BME280;34913;47.520;19.186;2023-07-20T06:40:03;99294.25;;;29.37;40.67
49102;BME280;34913;47.520;19.186;2023-07-20T06:42:29;99291.34;;;29.54;40.71
49102;BME280;34913;47.520;19.186;2023-07-20T06:44:55;99295.53;;;29.77;40.15
49102;BME280;34913;47.520;19.186;2023-07-20T06:47:23;99278.34;;;29.96;39.85
49102;BME280;34913;47.520;19.186;2023-07-20T06:49:48;99291.53;;;30.25;38.43
49102;BME280;34913;47.520;19.186;2023-07-20T06:52:14;99296.19;;;30.19;38.96
49102;BME280;34913;47.520;19.186;2023-07-20T06:54:39;99303.03;;;30.32;38.46
49102;BME280;34913;47.520;19.186;2023-07-20T06:57:05;99305.50;;;30.23;38.84
49102;BME280;34913;47.520;19.186;2023-07-20T06:59:30;99310.16;;;30.33;39.26
49102;BME280;34913;47.520;19.186;2023-07-20T07:01:56;99314.81;;;30.53;38.28
49102;BME280;34913;47.520;19.186;2023-07-20T07:04:21;99324.69;;;30.59;38.99
49102;BME280;34913;47.520;19.186;2023-07-20T07:06:47;99315.09;;;30.56;38.75
49102;BME280;34913;47.520;19.186;2023-07-20T07:09:13;99324.69;;;30.79;38.21
49102;BME280;34913;47.520;19.186;2023-07-20T07:11:38;99326.63;;;30.84;38.78
49102;BME280;34913;47.520;19.186;2023-07-20T07:14:04;99329.03;;;30.96;38.73
49102;BME280;34913;47.520;19.186;2023-07-20T07:16:29;99326.31;;;30.96;38.02
49102;BME280;34913;47.520;19.186;2023-07-20T07:18:55;99320.81;;;30.96;36.75
49102;BME280;34913;47.520;19.186;2023-07-20T07:21:20;99326.34;;;30.91;36.39
49102;BME280;34913;47.520;19.186;2023-07-20T07:23:46;99337.22;;;31.36;37.01
49102;BME280;34913;47.520;19.186;2023-07-20T07:26:12;99337.53;;;31.25;38.06
49102;BME280;34913;47.520;19.186;2023-07-20T07:28:38;99329.81;;;31.37;35.46
49102;BME280;34913;47.520;19.186;2023-07-20T07:31:06;99330.94;;;31.10;35.07
49102;BME280;34913;47.520;19.186;2023-07-20T07:33:32;99331.75;;;31.16;35.07
49102;BME280;34913;47.520;19.186;2023-07-20T07:35:58;99323.53;;;31.21;34.33
49102;BME280;34913;47.520;19.186;2023-07-20T07:38:23;99343.53;;;31.27;34.48
49102;BME280;34913;47.520;19.186;2023-07-20T07:40:49;99343.03;;;30.94;34.18
49102;BME280;34913;47.520;19.186;2023-07-20T07:43:14;99335.09;;;30.62;34.53
49102;BME280;34913;47.520;19.186;2023-07-20T07:45:40;99346.84;;;30.32;34.90
49102;BME280;34913;47.520;19.186;2023-07-20T07:48:06;99352.28;;;30.17;36.32
49102;BME280;34913;47.520;19.186;2023-07-20T07:50:32;99354.25;;;30.42;34.21
49102;BME280;34913;47.520;19.186;2023-07-20T07:52:58;99343.84;;;30.54;35.09
49102;BME280;34913;47.520;19.186;2023-07-20T07:55:24;99346.31;;;30.61;35.09
49102;BME280;34913;47.520;19.186;2023-07-20T07:57:51;99346.88;;;30.78;34.96
49102;BME280;34913;47.520;19.186;2023-07-20T08:00:17;99343.63;;;30.66;34.53
49102;BME280;34913;47.520;19.186;2023-07-20T08:02:45;99344.41;;;30.97;34.57
49102;BME280;34913;47.520;19.186;2023-07-20T08:05:11;99342.38;;;31.48;34.76
49102;BME280;34913;47.520;19.186;2023-07-20T08:07:37;99349.41;;;31.75;35.22
49102;BME280;34913;47.520;19.186;2023-07-20T08:10:03;99343.91;;;31.80;33.72
49102;BME280;34913;47.520;19.186;2023-07-20T08:12:29;99345.63;;;31.60;34.54
49102;BME280;34913;47.520;19.186;2023-07-20T08:14:54;99344.16;;;31.88;34.27
49102;BME280;34913;47.520;19.186;2023-07-20T08:17:20;99343.94;;;31.70;34.54
49102;BME280;34913;47.520;19.186;2023-07-20T08:19:46;99345.59;;;31.71;34.02
49102;BME280;34913;47.520;19.186;2023-07-20T08:22:11;99348.00;;;31.87;33.79
49102;BME280;34913;47.520;19.186;2023-07-20T08:24:40;99345.38;;;32.11;34.18
49102;BME280;34913;47.520;19.186;2023-07-20T08:27:06;99348.88;;;32.22;32.50
49102;BME280;34913;47.520;19.186;2023-07-20T08:29:32;99349.25;;;32.05;31.90
49102;BME280;34913;47.520;19.186;2023-07-20T08:31:57;99352.41;;;32.28;32.81
49102;BME280;34913;47.520;19.186;2023-07-20T08:34:22;99355.25;;;32.12;33.61
49102;BME280;34913;47.520;19.186;2023-07-20T08:36:48;99345.69;;;32.05;34.05
49102;BME280;34913;47.520;19.186;2023-07-20T08:39:13;99356.81;;;32.29;32.85
49102;BME280;34913;47.520;19.186;2023-07-20T08:41:41;99357.53;;;32.49;31.58
49102;BME280;34913;47.520;19.186;2023-07-20T08:44:08;99373.63;;;32.61;30.86
49102;BME280;34913;47.520;19.186;2023-07-20T08:46:35;99362.09;;;32.15;32.23
49102;BME280;34913;47.520;19.186;2023-07-20T08:49:00;99359.75;;;30.98;32.88
49102;BME280;34913;47.520;19.186;2023-07-20T08:51:28;99373.94;;;31.20;33.49
49102;BME280;34913;47.520;19.186;2023-07-20T08:53:54;99374.56;;;31.22;33.36
49102;BME280;34913;47.520;19.186;2023-07-20T08:56:20;99367.16;;;30.82;33.53
49102;BME280;34913;47.520;19.186;2023-07-20T08:58:56;99369.28;;;30.29;34.65
49102;BME280;34913;47.520;19.186;2023-07-20T09:01:27;99368.13;;;30.05;34.41
49102;BME280;34913;47.520;19.186;2023-07-20T09:03:53;99373.81;;;29.88;34.67
49102;BME280;34913;47.520;19.186;2023-07-20T09:06:18;99371.66;;;29.95;35.76
49102;BME280;34913;47.520;19.186;2023-07-20T09:08:44;99372.59;;;30.26;34.89
49102;BME280;34913;47.520;19.186;2023-07-20T09:11:11;99373.47;;;30.67;33.29
49102;BME280;34913;47.520;19.186;2023-07-20T09:13:37;99366.03;;;30.88;33.35
49102;BME280;34913;47.520;19.186;2023-07-20T09:16:03;99358.09;;;31.07;33.21
49102;BME280;34913;47.520;19.186;2023-07-20T09:18:33;99375.09;;;31.14;32.54
49102;BME280;34913;47.520;19.186;2023-07-20T09:21:04;99367.38;;;31.36;34.89
49102;BME280;34913;47.520;19.186;2023-07-20T09:23:38;99367.09;;;31.38;32.38
49102;BME280;34913;47.520;19.186;2023-07-20T09:26:13;99372.56;;;31.48;33.09
49102;BME280;34913;47.520;19.186;2023-07-20T09:28:48;99368.16;;;31.52;31.93
49102;BME280;34913;47.520;19.186;2023-07-20T09:31:21;99357.44;;;31.61;32.12
49102;BME280;34913;47.520;19.186;2023-07-20T09:33:48;99361.06;;;31.41;31.39
49102;BME280;34913;47.520;19.186;2023-07-20T09:36:14;99361.34;;;31.34;33.41
49102;BME280;34913;47.520;19.186;2023-07-20T09:38:41;99356.41;;;31.36;32.17
49102;BME280;34913;47.520;19.186;2023-07-20T09:41:07;99362.44;;;31.33;30.71
49102;BME280;34913;47.520;19.186;2023-07-20T09:43:36;99359.16;;;31.16;31.97
49102;BME280;34913;47.520;19.186;2023-07-20T09:46:02;99363.25;;;31.19;32.74
49102;BME280;34913;47.520;19.186;2023-07-20T09:48:27;99362.16;;;31.35;31.91
49102;BME280;34913;47.520;19.186;2023-07-20T09:50:53;99343.47;;;31.52;32.53
49102;BME280;34913;47.520;19.186;2023-07-20T09:53:19;99357.72;;;31.49;32.33
49102;BME280;34913;47.520;19.186;2023-07-20T09:55:48;99355.56;;;31.41;31.59
49102;BME280;34913;47.520;19.186;2023-07-20T09:58:16;99352.53;;;31.43;32.14
49102;BME280;34913;47.520;19.186;2023-07-20T10:00:42;99354.44;;;31.52;32.17
49102;BME280;34913;47.520;19.186;2023-07-20T10:03:10;99351.16;;;31.50;31.37
49102;BME280;34913;47.520;19.186;2023-07-20T10:05:40;99351.38;;;31.59;31.27
49102;BME280;34913;47.520;19.186;2023-07-20T10:08:11;99363.97;;;31.70;32.37
49102;BME280;34913;47.520;19.186;2023-07-20T10:10:38;99372.31;;;31.39;33.08
49102;BME280;34913;47.520;19.186;2023-07-20T10:13:08;99368.13;;;31.62;31.97
49102;BME280;34913;47.520;19.186;2023-07-20T10:15:50;99375.25;;;31.63;31.41
49102;BME280;34913;47.520;19.186;2023-07-20T10:18:38;99370.25;;;31.81;33.03
49102;BME280;34913;47.520;19.186;2023-07-20T10:21:07;99381.16;;;32.01;32.79
49102;BME280;34913;47.520;19.186;2023-07-20T10:23:34;99381.16;;;31.96;32.08
49102;BME280;34913;47.520;19.186;2023-07-20T10:26:00;99372.75;;;31.67;31.75
49102;BME280;34913;47.520;19.186;2023-07-20T10:28:26;99367.59;;;31.55;31.73
49102;BME280;34913;47.520;19.186;2023-07-20T10:30:52;99361.06;;;31.46;32.01
49102;BME280;34913;47.520;19.186;2023-07-20T10:33:18;99371.78;;;31.27;31.50
49102;BME280;34913;47.520;19.186;2023-07-20T10:35:57;99368.50;;;31.25;31.99
49102;BME280;34913;47.520;19.186;2023-07-20T10:41:20;99371.44;;;31.54;31.56
49102;BME280;34913;47.520;19.186;2023-07-20T10:43:46;99359.91;;;31.57;33.44
49102;BME280;34913;47.520;19.186;2023-07-20T10:46:13;99361.16;;;31.90;31.62
49102;BME280;34913;47.520;19.186;2023-07-20T10:49:01;99374.34;;;31.83;30.98
49102;BME280;34913;47.520;19.186;2023-07-20T10:51:30;99367.75;;;31.89;30.69
49102;BME280;34913;47.520;19.186;2023-07-20T10:53:56;99358.09;;;32.02;32.37
49102;BME280;34913;47.520;19.186;2023-07-20T10:56:26;99371.34;;;31.75;29.26
49102;BME280;34913;47.520;19.186;2023-07-20T10:59:04;99373.44;;;31.23;30.07
49102;BME280;34913;47.520;19.186;2023-07-20T11:01:55;99387.16;;;30.77;29.30
49102;BME280;34913;47.520;19.186;2023-07-20T11:04:57;99361.28;;;30.07;30.27
49102;BME280;34913;47.520;19.186;2023-07-20T11:07:38;99383.75;;;30.14;31.87
49102;BME280;34913;47.520;19.186;2023-07-20T11:10:14;99382.19;;;30.49;30.52
49102;BME280;34913;47.520;19.186;2023-07-20T11:13:20;99378.22;;;29.99;30.63
49102;BME280;34913;47.520;19.186;2023-07-20T11:15:53;99372.16;;;29.82;31.55
49102;BME280;34913;47.520;19.186;2023-07-20T11:18:27;99376.25;;;29.79;32.70
49102;BME280;34913;47.520;19.186;2023-07-20T11:20:53;99370.09;;;30.24;31.27
49102;BME280;34913;47.520;19.186;2023-07-20T11:23:22;99363.81;;;30.19;32.59
49102;BME280;34913;47.520;19.186;2023-07-20T11:25:48;99358.63;;;30.48;32.22
49102;BME280;34913;47.520;19.186;2023-07-20T11:28:13;99356.75;;;30.84;32.65
49102;BME280;34913;47.520;19.186;2023-07-20T11:30:39;99355.38;;;30.97;30.92
49102;BME280;34913;47.520;19.186;2023-07-20T11:33:05;99364.41;;;31.07;31.20
49102;BME280;34913;47.520;19.186;2023-07-20T11:35:35;99355.91;;;31.09;31.85
49102;BME280;34913;47.520;19.186;2023-07-20T11:38:00;99356.69;;;31.20;31.83
49102;BME280;34913;47.520;19.186;2023-07-20T11:40:26;99353.44;;;31.07;30.95
49102;BME280;34913;47.520;19.186;2023-07-20T11:42:51;99361.41;;;30.78;32.25
49102;BME280;34913;47.520;19.186;2023-07-20T11:45:19;99367.41;;;31.01;31.14
49102;BME280;34913;47.520;19.186;2023-07-20T11:47:44;99364.94;;;31.15;30.78
49102;BME280;34913;47.520;19.186;2023-07-20T11:50:10;99352.63;;;31.07;30.97
49102;BME280;34913;47.520;19.186;2023-07-20T11:52:39;99373.16;;;31.25;31.42
49102;BME280;34913;47.520;19.186;2023-07-20T11:55:06;99363.00;;;31.30;32.84
49102;BME280;34913;47.520;19.186;2023-07-20T11:57:32;99353.09;;;31.45;33.13
49102;BME280;34913;47.520;19.186;2023-07-20T12:00:01;99351.66;;;31.62;31.28
49102;BME280;34913;47.520;19.186;2023-07-20T12:02:30;99348.09;;;31.57;30.17
49102;BME280;34913;47.520;19.186;2023-07-20T12:04:56;99350.53;;;31.68;30.35
49102;BME280;34913;47.520;19.186;2023-07-20T12:07:21;99351.38;;;31.59;30.73
49102;BME280;34913;47.520;19.186;2023-07-20T12:10:03;99341.63;;;31.32;31.13
49102;BME280;34913;47.520;19.186;2023-07-20T12:12:31;99328.41;;;31.45;32.10
49102;BME280;34913;47.520;19.186;2023-07-20T12:15:21;99334.59;;;31.71;30.77
49102;BME280;34913;47.520;19.186;2023-07-20T12:17:55;99333.75;;;31.75;30.73
49102;BME280;34913;47.520;19.186;2023-07-20T12:23:03;99333.16;;;31.93;30.27
49102;BME280;34913;47.520;19.186;2023-07-20T12:25:48;99321.63;;;31.91;30.32
49102;BME280;34913;47.520;19.186;2023-07-20T12:28:16;99333.69;;;31.90;29.16
49102;BME280;34913;47.520;19.186;2023-07-20T12:30:43;99320.94;;;31.60;30.46
49102;BME280;34913;47.520;19.186;2023-07-20T12:33:09;99334.69;;;31.50;31.07
49102;BME280;34913;47.520;19.186;2023-07-20T12:35:35;99336.94;;;31.33;29.53
49102;BME280;34913;47.520;19.186;2023-07-20T12:38:00;99331.75;;;31.31;29.22
49102;BME280;34913;47.520;19.186;2023-07-20T12:40:26;99333.84;;;31.55;29.61
49102;BME280;34913;47.520;19.186;2023-07-20T12:42:52;99332.97;;;31.64;29.77
49102;BME280;34913;47.520;19.186;2023-07-20T12:45:17;99324.81;;;31.49;28.58
49102;BME280;34913;47.520;19.186;2023-07-20T12:47:43;99323.19;;;31.48;28.71
49102;BME280;34913;47.520;19.186;2023-07-20T12:50:10;99333.81;;;31.60;29.13
49102;BME280;34913;47.520;19.186;2023-07-20T12:52:37;99325.03;;;31.68;27.04
49102;BME280;34913;47.520;19.186;2023-07-20T12:55:05;99331.81;;;31.76;28.32
49102;BME280;34913;47.520;19.186;2023-07-20T12:57:30;99331.59;;;31.77;27.58
49102;BME280;34913;47.520;19.186;2023-07-20T12:59:56;99325.50;;;31.75;27.81
49102;BME280;34913;47.520;19.186;2023-07-20T13:02:21;99334.91;;;31.69;28.28
49102;BME280;34913;47.520;19.186;2023-07-20T13:04:47;99327.25;;;31.61;27.36
49102;BME280;34913;47.520;19.186;2023-07-20T13:07:12;99334.91;;;31.69;27.18
49102;BME280;34913;47.520;19.186;2023-07-20T13:09:37;99336.56;;;31.60;29.13